createdAt,value
2023-04-25T00:02:15.254Z,83.64
2023-04-25T00:04:41.950Z,83.24
2023-04-25T00:07:08.760Z,84.04
2023-04-25T00:09:35.285Z,83.95
2023-04-25T00:12:02.478Z,84.21
2023-04-25T00:14:29.814Z,83.70
2023-04-25T00:16:56.290Z,83.64
2023-04-25T00:19:22.817Z,82.48
2023-04-25T00:21:49.285Z,82.38
2023-04-25T00:24:16.333Z,82.05
2023-04-25T00:26:42.800Z,81.11
2023-04-25T00:29:09.255Z,81.68
2023-04-25T00:31:35.749Z,81.45
2023-04-25T00:34:02.442Z,80.65
2023-04-25T00:36:28.883Z,81.07
2023-04-25T00:38:56.062Z,79.77
2023-04-25T00:41:22.751Z,81.39
2023-04-25T00:43:49.867Z,81.34
2023-04-25T00:46:16.589Z,82.04
2023-04-25T00:48:43.122Z,81.40
2023-04-25T00:51:15.689Z,81.73
2023-04-25T00:53:42.244Z,81.74
2023-04-25T00:56:08.826Z,80.32
2023-04-25T00:58:35.762Z,80.74
2023-04-25T01:01:02.472Z,80.36
2023-04-25T01:03:30.717Z,79.78
2023-04-25T01:05:57.628Z,79.52
2023-04-25T01:08:25.813Z,80.83
2023-04-25T01:10:52.240Z,80.31
2023-04-25T01:13:18.825Z,78.75
2023-04-25T01:15:45.538Z,78.44
2023-04-25T01:18:12.515Z,79.55
2023-04-25T01:20:39.685Z,79.99
2023-04-25T01:23:06.305Z,79.98
2023-04-25T01:25:32.767Z,78.39
2023-04-25T01:27:59.807Z,79.47
2023-04-25T01:30:30.007Z,78.40
2023-04-25T01:32:57.341Z,78.55
2023-04-25T01:35:25.033Z,78.27
2023-04-25T01:37:52.179Z,78.49
2023-04-25T01:40:19.868Z,79.03
2023-04-25T01:42:47.008Z,78.45
2023-04-25T01:45:14.015Z,78.59
2023-04-25T01:47:41.249Z,77.52
2023-04-25T01:50:08.893Z,78.01
2023-04-25T01:52:35.449Z,78.04
2023-04-25T01:55:03.161Z,78.24
2023-04-25T01:57:29.662Z,77.60
2023-04-25T02:00:03.643Z,77.44
2023-04-25T02:02:30.305Z,77.35
2023-04-25T02:04:57.201Z,78.00
2023-04-25T02:07:23.650Z,76.98
2023-04-25T02:09:50.126Z,77.39
2023-04-25T02:12:16.601Z,77.37
2023-04-25T02:14:43.085Z,77.23
2023-04-25T02:17:09.698Z,77.08
2023-04-25T02:19:36.302Z,77.49
2023-04-25T02:22:02.848Z,77.49
2023-04-25T02:24:29.419Z,77.04
2023-04-25T02:26:57.041Z,77.21
2023-04-25T02:29:24.045Z,77.93
2023-04-25T02:31:50.858Z,75.29
2023-04-25T02:34:17.425Z,76.53
2023-04-25T02:36:43.933Z,76.10
2023-04-25T02:39:11.318Z,75.48
2023-04-25T02:41:37.910Z,76.21
2023-04-25T02:44:04.447Z,76.50
2023-04-25T02:46:39.060Z,74.22
2023-04-25T02:49:07.346Z,75.50
2023-04-25T02:51:33.890Z,75.08
2023-04-25T02:54:00.411Z,73.30
2023-04-25T02:56:27.297Z,73.94
2023-04-25T02:58:54.772Z,74.15
2023-04-25T03:01:21.440Z,73.63
2023-04-25T03:03:48.090Z,72.79
2023-04-25T03:06:15.078Z,72.54
2023-04-25T03:08:41.553Z,72.42
2023-04-25T03:11:08.020Z,72.80
2023-04-25T03:13:34.587Z,71.23
2023-04-25T03:16:01.261Z,71.21
2023-04-25T03:18:27.755Z,70.03
2023-04-25T03:20:54.218Z,69.25
2023-04-25T03:23:20.924Z,69.27
2023-04-25T03:25:47.427Z,69.73
2023-04-25T03:28:14.780Z,68.60
2023-04-25T03:30:41.259Z,68.23
2023-04-25T03:33:07.839Z,68.08
2023-04-25T03:35:34.420Z,68.43
2023-04-25T03:38:01.026Z,67.98
2023-04-25T03:40:27.552Z,66.87
2023-04-25T03:42:54.051Z,66.98
2023-04-25T03:45:20.557Z,66.41
2023-04-25T03:47:47.048Z,66.26
2023-04-25T03:50:13.660Z,66.75
2023-04-25T03:52:40.219Z,66.72
2023-04-25T03:55:07.049Z,67.31
2023-04-25T03:57:33.538Z,66.22
2023-04-25T04:00:00.002Z,66.69
2023-04-25T04:02:26.645Z,66.43
2023-04-25T04:04:53.426Z,66.14
2023-04-25T04:07:20.096Z,66.08
2023-04-25T04:09:46.572Z,65.69
2023-04-25T04:12:13.110Z,64.86
2023-04-25T04:14:39.587Z,63.62
2023-04-25T04:17:06.993Z,63.73
2023-04-25T04:19:33.482Z,64.58
2023-04-25T04:21:59.968Z,64.04
2023-04-25T04:24:26.443Z,63.69
2023-04-25T04:26:53.143Z,63.38
2023-04-25T04:29:22.261Z,64.95
2023-04-25T04:31:50.544Z,63.56
2023-04-25T04:34:20.216Z,63.56
2023-04-25T04:36:47.850Z,63.00
2023-04-25T04:39:14.836Z,62.76
2023-04-25T04:41:41.541Z,63.45
2023-04-25T04:44:09.948Z,62.70
2023-04-25T04:46:38.868Z,62.32
2023-04-25T04:49:06.233Z,61.84
2023-04-25T04:51:32.825Z,62.61
2023-04-25T04:54:03.290Z,62.92
2023-04-25T04:56:33.351Z,62.98
2023-04-25T04:58:59.956Z,63.07
2023-04-25T05:01:27.388Z,63.42
2023-04-25T05:03:54.768Z,63.52
2023-04-25T05:06:21.719Z,63.20
2023-04-25T05:08:48.250Z,64.13
2023-04-25T05:11:14.741Z,64.59
2023-04-25T05:13:41.224Z,63.73
2023-04-25T05:16:07.749Z,63.03
2023-04-25T05:18:35.345Z,63.99
2023-04-25T05:21:01.884Z,62.30
2023-04-25T05:23:29.019Z,63.50
2023-04-25T05:25:55.649Z,63.34
2023-04-25T05:28:22.351Z,62.28
2023-04-25T05:30:49.103Z,62.75
2023-04-25T05:33:15.835Z,62.10
2023-04-25T05:35:42.554Z,62.58
2023-04-25T05:38:09.130Z,61.33
2023-04-25T05:40:35.717Z,61.93
2023-04-25T05:43:02.317Z,60.74
2023-04-25T05:45:28.890Z,60.88
2023-04-25T05:47:55.425Z,60.39
2023-04-25T05:50:22.214Z,59.76
2023-04-25T05:52:48.729Z,59.22
2023-04-25T05:55:15.912Z,59.22
2023-04-25T05:57:43.433Z,59.65
2023-04-25T06:00:10.668Z,59.93
2023-04-25T06:02:37.287Z,60.35
2023-04-25T06:05:04.748Z,59.61
2023-04-25T06:07:31.889Z,60.16
2023-04-25T06:09:58.449Z,60.54
2023-04-25T06:12:24.895Z,61.32
2023-04-25T06:14:51.334Z,60.85
2023-04-25T06:17:17.834Z,60.91
2023-04-25T06:19:44.336Z,61.70
2023-04-25T06:22:11.283Z,61.63
2023-04-25T06:24:37.763Z,61.06
2023-04-25T06:27:04.238Z,62.32
2023-04-25T06:29:31.827Z,61.96
2023-04-25T06:31:58.463Z,61.38
2023-04-25T06:34:25.122Z,61.78
2023-04-25T06:36:51.567Z,62.24
2023-04-25T06:39:18.075Z,61.93
2023-04-25T06:41:44.496Z,62.41
2023-04-25T06:44:11.112Z,61.98
2023-04-25T06:46:38.705Z,60.56
2023-04-25T06:49:05.229Z,61.76
2023-04-25T06:51:31.871Z,61.27
2023-04-25T06:53:58.517Z,62.23
2023-04-25T06:56:25.059Z,64.06
2023-04-25T06:58:51.773Z,62.64
2023-04-25T07:01:18.554Z,63.08
2023-04-25T07:03:45.207Z,63.88
2023-04-25T07:06:11.720Z,63.58
2023-04-25T07:08:38.176Z,64.60
2023-04-25T07:11:04.673Z,64.60
2023-04-25T07:13:31.253Z,62.80
2023-04-25T07:15:58.102Z,63.81
2023-04-25T07:18:24.588Z,62.48
2023-04-25T07:20:51.029Z,62.68
2023-04-25T07:23:17.514Z,61.70
2023-04-25T07:25:43.975Z,62.49
2023-04-25T07:28:10.502Z,62.23
2023-04-25T07:30:37.752Z,60.58
2023-04-25T07:33:04.318Z,60.99
2023-04-25T07:35:30.844Z,61.37
2023-04-25T07:37:57.379Z,60.24
2023-04-25T07:40:23.899Z,60.68
2023-04-25T07:42:50.531Z,59.01
2023-04-25T07:45:17.207Z,57.39
2023-04-25T07:47:43.707Z,57.88
2023-04-25T07:50:11.164Z,56.65
2023-04-25T07:52:37.709Z,56.81
2023-04-25T07:55:04.543Z,54.81
2023-04-25T07:57:31.293Z,54.80
2023-04-25T07:59:57.846Z,54.15
2023-04-25T08:02:24.490Z,53.67
2023-04-25T08:04:51.305Z,54.06
2023-04-25T08:07:17.922Z,53.13
2023-04-25T08:09:44.517Z,52.72
2023-04-25T08:12:10.995Z,53.90
2023-04-25T08:14:38.315Z,52.77
2023-04-25T08:17:04.984Z,52.02
2023-04-25T08:19:31.848Z,52.36
2023-04-25T08:21:58.705Z,52.68
2023-04-25T08:24:25.174Z,53.55
2023-04-25T08:26:52.700Z,53.53
2023-04-25T08:29:19.175Z,54.53
2023-04-25T08:31:45.846Z,57.27
2023-04-25T08:34:12.533Z,63.70
2023-04-25T08:36:40.434Z,71.00
2023-04-25T08:39:07.997Z,73.49
2023-04-25T08:41:34.567Z,74.28
2023-04-25T08:44:02.214Z,72.19
2023-04-25T08:46:29.423Z,70.89
2023-04-25T08:48:59.673Z,69.61
2023-04-25T08:51:26.878Z,68.65
2023-04-25T08:53:54.399Z,66.48
2023-04-25T08:56:25.124Z,66.67
2023-04-25T08:58:52.296Z,66.17
2023-04-25T09:01:19.561Z,64.97
2023-04-25T09:03:48.217Z,63.62
2023-04-25T09:06:16.081Z,62.60
2023-04-25T09:08:42.734Z,61.74
2023-04-25T09:11:09.188Z,59.73
2023-04-25T09:13:35.875Z,56.64
2023-04-25T09:16:02.774Z,57.45
2023-04-25T09:18:31.362Z,57.86
2023-04-25T09:23:46.835Z,60.26
2023-04-25T09:26:18.226Z,63.48
2023-04-25T09:28:44.800Z,61.67
2023-04-25T09:31:12.592Z,59.82
2023-04-25T09:33:39.370Z,58.62
2023-04-25T09:36:08.219Z,57.55
2023-04-25T09:39:01.692Z,57.43
2023-04-25T09:41:28.111Z,61.82
2023-04-25T09:43:58.172Z,69.23
2023-04-25T09:46:26.339Z,70.80
2023-04-25T09:48:54.810Z,69.09
2023-04-25T09:51:26.825Z,66.54
2023-04-25T09:53:53.584Z,64.89
2023-04-25T09:56:21.149Z,63.89
2023-04-25T09:58:48.514Z,61.90
2023-04-25T10:01:15.834Z,60.33
2023-04-25T10:03:43.472Z,60.12
2023-04-25T10:06:13.733Z,58.84
2023-04-25T10:08:41.170Z,59.34
2023-04-25T10:11:09.125Z,59.18
2023-04-25T10:13:36.705Z,57.94
2023-04-25T10:16:05.790Z,59.55
2023-04-25T10:18:33.312Z,59.03
2023-04-25T10:21:01.779Z,61.35
2023-04-25T10:23:30.315Z,61.27
2023-04-25T10:25:56.979Z,63.05
2023-04-25T10:28:23.433Z,63.06
2023-04-25T10:31:03.891Z,64.02
2023-04-25T10:33:43.160Z,63.16
2023-04-25T10:36:10.510Z,68.47
2023-04-25T10:38:38.116Z,69.38
2023-04-25T10:41:06.254Z,70.63
2023-04-25T10:43:32.767Z,72.82
2023-04-25T10:46:02.703Z,75.22
2023-04-25T10:48:32.107Z,75.09
2023-04-25T10:51:12.097Z,76.33
2023-04-25T10:53:38.582Z,77.66
2023-04-25T10:56:22.335Z,77.44
2023-04-25T10:58:51.313Z,77.05
2023-04-25T11:01:25.728Z,75.10
2023-04-25T11:03:59.156Z,74.08
2023-04-25T11:06:32.773Z,72.32
2023-04-25T11:09:01.382Z,70.96
2023-04-25T11:11:28.016Z,68.73
2023-04-25T11:13:54.464Z,67.68
2023-04-25T11:19:07.314Z,66.57
2023-04-25T11:21:33.912Z,65.64
2023-04-25T11:24:00.919Z,64.46
2023-04-25T11:26:27.523Z,63.74
2023-04-25T11:28:58.884Z,60.63
2023-04-25T11:31:26.173Z,62.09
2023-04-25T11:33:55.892Z,59.92
2023-04-25T11:36:24.022Z,58.47
2023-04-25T11:38:52.584Z,60.32
2023-04-25T11:41:19.982Z,61.78
2023-04-25T11:43:46.463Z,64.25
2023-04-25T11:46:12.966Z,64.36
2023-04-25T11:48:43.401Z,67.84
2023-04-25T11:51:10.565Z,73.10
2023-04-25T11:53:37.175Z,75.52
2023-04-25T11:56:11.232Z,75.30
2023-04-25T11:59:02.880Z,72.55
2023-04-25T12:01:35.617Z,71.32
2023-04-25T12:04:13.676Z,70.75
2023-04-25T12:06:41.688Z,70.30
2023-04-25T12:09:10.259Z,69.44
2023-04-25T12:11:48.396Z,67.06
2023-04-25T12:14:27.166Z,66.46
2023-04-25T12:16:54.295Z,63.48
2023-04-25T12:19:21.358Z,62.93
2023-04-25T12:24:24.432Z,58.82
2023-04-25T12:27:02.310Z,61.11
2023-04-25T12:29:34.823Z,59.65
2023-04-25T12:32:08.942Z,58.32
2023-04-25T12:34:36.961Z,58.15
2023-04-25T12:37:03.569Z,56.92
2023-04-25T12:39:30.051Z,53.96
2023-04-25T12:41:56.598Z,54.36
2023-04-25T12:44:23.455Z,56.04
2023-04-25T12:46:50.071Z,55.79
2023-04-25T12:49:19.198Z,56.95
2023-04-25T12:51:46.122Z,55.74
2023-04-25T12:54:12.706Z,55.58
2023-04-25T12:56:39.414Z,57.06
2023-04-25T12:59:06.013Z,57.25
2023-04-25T13:01:34.726Z,54.53
2023-04-25T13:04:03.049Z,53.61
2023-04-25T13:06:31.392Z,53.13
2023-04-25T13:08:57.908Z,53.18
2023-04-25T13:11:24.623Z,52.03
2023-04-25T13:13:51.345Z,55.56
2023-04-25T13:16:18.622Z,61.64
2023-04-25T13:18:45.128Z,64.84
2023-04-25T13:21:14.489Z,66.71
2023-04-25T13:23:42.796Z,65.23
2023-04-25T13:26:09.457Z,62.14
2023-04-25T13:28:35.927Z,58.84
2023-04-25T13:31:02.399Z,60.47
2023-04-25T13:33:29.733Z,59.63
2023-04-25T13:35:58.260Z,59.33
2023-04-25T13:38:25.630Z,61.55
2023-04-25T13:40:55.782Z,62.37
2023-04-25T13:43:25.080Z,61.60
2023-04-25T13:45:52.489Z,60.09
2023-04-25T13:48:20.914Z,59.53
2023-04-25T13:50:47.521Z,58.46
2023-04-25T13:53:14.128Z,57.96
2023-04-25T13:55:40.674Z,57.38
2023-04-25T13:58:08.941Z,57.48
2023-04-25T14:00:40.465Z,56.25
2023-04-25T14:03:08.551Z,59.37
2023-04-25T14:05:39.219Z,57.69
2023-04-25T14:08:10.227Z,58.08
2023-04-25T14:10:37.218Z,54.44
2023-04-25T14:13:04.462Z,54.57
2023-04-25T14:15:35.116Z,55.82
2023-04-25T14:18:02.832Z,54.71
2023-04-25T14:20:30.344Z,55.17
2023-04-25T14:22:58.923Z,56.02
2023-04-25T14:25:25.949Z,57.42
2023-04-25T14:27:52.545Z,58.28
2023-04-25T14:30:19.973Z,57.96
2023-04-25T14:32:46.788Z,58.49
2023-04-25T14:35:13.670Z,58.23
2023-04-25T14:37:40.520Z,58.02
2023-04-25T14:40:09.768Z,55.28
2023-04-25T14:42:36.479Z,53.55
2023-04-25T14:45:04.628Z,54.34
2023-04-25T14:47:31.175Z,56.24
2023-04-25T14:49:57.657Z,55.72
2023-04-25T14:52:24.293Z,57.14
2023-04-25T14:54:51.120Z,58.52
2023-04-25T14:57:18.023Z,60.93
2023-04-25T14:59:44.501Z,61.22
2023-04-25T15:02:11.741Z,61.13
2023-04-25T15:04:38.456Z,59.76
2023-04-25T15:07:05.101Z,59.41
2023-04-25T15:09:31.591Z,59.54
2023-04-25T15:11:58.807Z,60.94
2023-04-25T15:14:25.286Z,60.97
2023-04-25T15:16:51.796Z,61.97
2023-04-25T15:19:18.272Z,61.19
2023-04-25T15:21:44.763Z,61.20
2023-04-25T15:24:12.041Z,61.72
2023-04-25T15:26:38.538Z,60.53
2023-04-25T15:29:06.821Z,61.17
2023-04-25T15:31:33.529Z,60.83
2023-04-25T15:34:00.015Z,63.62
2023-04-25T15:36:26.566Z,75.36
2023-04-25T15:38:53.093Z,75.52
2023-04-25T15:41:19.568Z,73.92
2023-04-25T15:43:49.010Z,73.22
2023-04-25T15:46:16.157Z,71.70
2023-04-25T15:48:42.760Z,71.05
2023-04-25T15:51:09.832Z,71.27
2023-04-25T15:53:36.475Z,68.91
2023-04-25T15:56:04.627Z,68.28
2023-04-25T15:58:31.218Z,69.05
2023-04-25T16:00:57.878Z,68.70
2023-04-25T16:03:24.551Z,67.90
2023-04-25T16:05:51.157Z,65.65
2023-04-25T16:08:17.597Z,64.79
2023-04-25T16:10:44.151Z,63.71
2023-04-25T16:13:11.297Z,62.89
2023-04-25T16:15:37.870Z,63.52
2023-04-25T16:18:04.697Z,63.25
2023-04-25T16:20:31.250Z,62.57
2023-04-25T16:22:57.792Z,63.75
2023-04-25T16:25:24.392Z,65.37
2023-04-25T16:27:50.861Z,65.08
2023-04-25T16:30:17.408Z,64.55
2023-04-25T16:32:45.404Z,63.57
2023-04-25T16:35:12.343Z,63.22
2023-04-25T16:37:38.863Z,63.35
2023-04-25T16:40:08.917Z,62.29
2023-04-25T16:42:36.357Z,62.59
2023-04-25T16:45:05.012Z,64.64
2023-04-25T16:47:32.132Z,66.98
2023-04-25T16:50:00.531Z,69.66
2023-04-25T16:52:27.137Z,68.93
2023-04-25T16:54:53.596Z,68.23
2023-04-25T16:57:21.162Z,67.46
2023-04-25T16:59:47.776Z,67.64
2023-04-25T17:02:14.923Z,66.07
2023-04-25T17:04:41.792Z,65.15
2023-04-25T17:07:08.762Z,63.74
2023-04-25T17:09:35.758Z,64.16
2023-04-25T17:12:05.097Z,62.69
2023-04-25T17:14:33.256Z,62.19
2023-04-25T17:17:00.095Z,61.77
2023-04-25T17:19:27.446Z,61.96
2023-04-25T17:21:54.001Z,61.62
2023-04-25T17:24:21.916Z,62.64
2023-04-25T17:26:48.939Z,62.24
2023-04-25T17:29:15.726Z,62.62
2023-04-25T17:31:42.776Z,62.53
2023-04-25T17:34:09.872Z,61.89
2023-04-25T17:36:36.522Z,62.22
2023-04-25T17:39:06.233Z,61.95
2023-04-25T17:41:32.847Z,62.48
2023-04-25T17:43:59.303Z,61.98
2023-04-25T17:46:27.491Z,62.60
2023-04-25T17:48:54.389Z,62.49
2023-04-25T17:51:21.276Z,62.82
2023-04-25T17:53:48.014Z,62.21
2023-04-25T17:56:25.866Z,62.89
2023-04-25T17:58:53.238Z,63.55
2023-04-25T18:01:19.978Z,62.74
2023-04-25T18:03:49.021Z,63.96
2023-04-25T18:06:16.257Z,64.49
2023-04-25T18:08:44.819Z,65.53
2023-04-25T18:11:12.154Z,64.90
2023-04-25T18:13:39.727Z,65.47
2023-04-25T18:16:07.314Z,66.49
2023-04-25T18:18:36.083Z,68.48
2023-04-25T18:21:05.427Z,71.79
2023-04-25T18:23:34.493Z,72.37
2023-04-25T18:26:04.838Z,72.11
2023-04-25T18:28:34.422Z,71.96
2023-04-25T18:31:01.349Z,72.07
2023-04-25T18:33:27.915Z,72.70
2023-04-25T18:35:59.147Z,72.25
2023-04-25T18:41:08.348Z,71.06
2023-04-25T18:43:44.533Z,70.05
2023-04-25T18:46:11.167Z,70.49
2023-04-25T18:48:38.646Z,70.28
2023-04-25T18:51:05.681Z,70.55
2023-04-25T18:53:32.479Z,70.32
2023-04-25T18:55:58.919Z,70.33
2023-04-25T18:58:26.642Z,69.45
2023-04-25T19:00:53.501Z,69.19
2023-04-25T19:03:20.258Z,67.63
2023-04-25T19:05:46.778Z,67.93
2023-04-25T19:08:13.259Z,68.00
2023-04-25T19:10:39.733Z,67.75
2023-04-25T19:13:07.557Z,68.53
2023-04-25T19:15:34.265Z,67.74
2023-04-25T19:18:01.278Z,67.15
2023-04-25T19:20:28.130Z,68.65
2023-04-25T19:22:54.691Z,68.82
2023-04-25T19:25:21.187Z,67.51
2023-04-25T19:27:47.701Z,68.32
2023-04-25T19:30:14.696Z,69.94
2023-04-25T19:32:41.306Z,68.06
2023-04-25T19:35:11.633Z,68.52
2023-04-25T19:37:41.067Z,69.11
2023-04-25T19:40:08.470Z,69.11
2023-04-25T19:42:35.700Z,67.74
2023-04-25T19:45:02.524Z,68.09
2023-04-25T19:47:29.300Z,68.47
2023-04-25T19:49:55.837Z,67.19
2023-04-25T19:52:22.484Z,66.79
2023-04-25T19:54:49.340Z,66.60
2023-04-25T19:57:15.857Z,66.86
2023-04-25T19:59:45.726Z,66.99
2023-04-25T20:02:12.234Z,68.24
2023-04-25T20:04:38.899Z,67.68
2023-04-25T20:07:05.562Z,70.21
2023-04-25T20:09:32.095Z,72.30
2023-04-25T20:11:58.673Z,73.41
2023-04-25T20:14:26.462Z,75.15
2023-04-25T20:16:54.242Z,76.64
2023-04-25T20:19:20.971Z,79.34
2023-04-25T20:21:47.475Z,80.55
2023-04-25T20:24:13.933Z,81.74
2023-04-25T20:26:40.914Z,80.72
2023-04-25T20:29:09.805Z,79.33
2023-04-25T20:31:36.976Z,80.21
2023-04-25T20:34:03.827Z,78.62
2023-04-25T20:36:31.820Z,80.08
2023-04-25T20:38:58.486Z,78.67
2023-04-25T20:41:25.188Z,79.30
2023-04-25T20:43:53.278Z,79.58
2023-04-25T20:46:20.184Z,78.38
2023-04-25T20:48:46.828Z,78.73
2023-04-25T20:51:13.323Z,75.95
2023-04-25T20:53:39.847Z,76.53
2023-04-25T20:56:06.681Z,76.59
2023-04-25T20:58:33.542Z,76.53
2023-04-25T21:01:00.141Z,75.62
2023-04-25T21:03:26.835Z,74.95
2023-04-25T21:05:53.724Z,78.08
2023-04-25T21:08:20.210Z,78.87
2023-04-25T21:10:46.788Z,80.13
2023-04-25T21:13:13.439Z,78.98
2023-04-25T21:15:39.987Z,79.15
2023-04-25T21:18:07.249Z,78.87
2023-04-25T21:20:33.810Z,79.51
2023-04-25T21:23:00.336Z,78.21
2023-04-25T21:25:31.043Z,77.54
2023-04-25T21:27:59.540Z,77.61
2023-04-25T21:30:26.550Z,76.92
2023-04-25T21:32:55.297Z,75.64
2023-04-25T21:35:23.228Z,74.84
2023-04-25T21:37:50.101Z,74.86
2023-04-25T21:40:17.026Z,75.12
2023-04-25T21:42:45.793Z,74.65
2023-04-25T21:45:12.541Z,74.69
2023-04-25T21:47:39.384Z,74.62
2023-04-25T21:50:06.482Z,74.42
2023-04-25T21:52:33.036Z,75.63
2023-04-25T21:54:59.589Z,78.52
2023-04-25T21:57:26.438Z,76.62
2023-04-25T21:59:53.566Z,77.31
2023-04-25T22:02:20.181Z,76.62
2023-04-25T22:04:49.867Z,76.44
2023-04-25T22:07:16.586Z,76.03
2023-04-25T22:09:53.902Z,76.13
2023-04-25T22:12:21.339Z,74.97
2023-04-25T22:14:47.869Z,76.07
2023-04-25T22:17:14.763Z,76.48
2023-04-25T22:19:41.418Z,73.76
2023-04-25T22:22:07.890Z,76.57
2023-04-25T22:24:34.458Z,75.17
2023-04-25T22:27:00.911Z,75.94
2023-04-25T22:29:27.448Z,76.26
2023-04-25T22:31:54.048Z,76.60
2023-04-25T22:34:21.053Z,76.44
2023-04-25T22:36:47.482Z,75.29
2023-04-25T22:39:15.380Z,74.29
2023-04-25T22:41:42.656Z,75.25
2023-04-25T22:44:09.402Z,75.35
2023-04-25T22:46:35.847Z,77.23
2023-04-25T22:49:02.730Z,77.00
2023-04-25T22:51:29.510Z,76.09
2023-04-25T22:53:56.216Z,75.45
2023-04-25T22:56:24.672Z,74.97
2023-04-25T22:58:51.731Z,75.73
2023-04-25T23:01:19.401Z,74.94
2023-04-25T23:03:46.329Z,72.54
2023-04-25T23:06:13.328Z,72.84
2023-04-25T23:08:40.714Z,72.77
2023-04-25T23:11:08.041Z,70.98
2023-04-25T23:13:37.653Z,71.80
2023-04-25T23:16:10.918Z,72.91
2023-04-25T23:18:39.031Z,72.31
2023-04-25T23:21:12.294Z,71.94
2023-04-25T23:23:39.121Z,72.79
2023-04-25T23:26:09.899Z,72.86
2023-04-25T23:28:39.880Z,72.46
2023-04-25T23:31:09.369Z,73.63
2023-04-25T23:33:36.410Z,72.44
2023-04-25T23:36:02.941Z,73.12
2023-04-25T23:38:29.541Z,74.51
2023-04-25T23:40:56.192Z,73.72
2023-04-25T23:43:22.785Z,74.56
2023-04-25T23:45:49.443Z,74.85
2023-04-25T23:48:16.023Z,76.12
2023-04-25T23:50:42.639Z,76.11
2023-04-25T23:53:09.534Z,75.75
2023-04-25T23:55:36.136Z,75.96
2023-04-25T23:58:03.587Z,74.60
